Time;durP1;ratioP1;P1;durP2;ratioP2;P2;SDS_P1;SDS_P2;PMS_P1;PMS_P2;Temp;Humidity;BMP_temperature;BMP_pressure;BME280_temperature;BME280_humidity;BME280_pressure;Samples;Min_cycle;Max_cycle;Signal;HPM_P1;HPM_P2
2023/11/09 00:01:13;;;;;;;11.90;7.77;;;;;;;7.92;85.17;100155.44;5085261;28;20201;-72
2023/11/09 00:03:42;;;;;;;10.73;7.17;;;;;;;7.94;85.41;100160.56;5089686;28;20216;-71
2023/11/09 00:06:12;;;;;;;11.93;7.77;;;;;;;7.90;85.07;100161.41;5095057;28;20200;-70
2023/11/09 00:08:43;;;;;;;10.53;7.23;;;;;;;7.87;85.02;100161.41;5095101;28;20203;-69
2023/11/09 00:11:11;;;;;;;11.60;7.30;;;;;;;7.85;84.95;100173.41;5100104;28;20204;-70
2023/11/09 00:13:39;;;;;;;10.20;6.67;;;;;;;7.84;85.27;100169.97;5096540;28;20188;-70
2023/11/09 00:16:13;;;;;;;9.10;6.17;;;;;;;7.84;84.97;100169.09;5095566;28;20211;-69
2023/11/09 00:18:41;;;;;;;9.20;6.53;;;;;;;7.81;85.84;100162.28;5090342;28;20741;-72
2023/11/09 00:21:09;;;;;;;9.97;7.07;;;;;;;7.90;85.95;100166.56;5092071;28;20255;-72
2023/11/09 00:23:39;;;;;;;10.07;7.17;;;;;;;7.93;85.64;100169.13;5093922;28;20228;-69
2023/11/09 00:26:08;;;;;;;10.20;6.87;;;;;;;7.92;85.30;100170.84;5095202;28;20204;-70
2023/11/09 00:28:36;;;;;;;7.83;6.40;;;;;;;7.93;84.80;100166.56;5098103;28;20679;-70
2023/11/09 00:31:04;;;;;;;9.37;6.60;;;;;;;7.88;85.12;100168.25;5093310;28;20211;-71
2023/11/09 00:33:34;;;;;;;8.93;6.27;;;;;;;7.86;85.05;100165.69;5095190;28;20283;-73
2023/11/09 00:36:02;;;;;;;8.33;6.07;;;;;;;7.84;85.41;100162.28;5095858;28;20678;-70
2023/11/09 00:38:30;;;;;;;11.10;6.70;;;;;;;7.80;84.64;100169.94;5090783;28;20197;-70
2023/11/09 00:40:58;;;;;;;9.37;6.27;;;;;;;7.81;85.38;100171.69;5092847;28;20201;-70
2023/11/09 00:43:26;;;;;;;8.07;5.50;;;;;;;7.74;84.66;100158.00;5092328;28;20273;-70
2023/11/09 00:45:54;;;;;;;7.47;5.33;;;;;;;7.78;84.72;100163.97;5091509;28;20201;-71
2023/11/09 00:48:22;;;;;;;7.03;5.47;;;;;;;7.75;84.72;100165.69;5091902;28;20212;-70
2023/11/09 00:50:53;;;;;;;8.97;6.00;;;;;;;7.73;84.36;100159.72;5093657;28;20211;-69
2023/11/09 00:53:21;;;;;;;9.83;6.00;;;;;;;7.72;83.88;100160.53;5093455;28;20197;-70
2023/11/09 00:55:49;;;;;;;7.10;5.10;;;;;;;7.71;84.56;100166.53;5090324;28;20205;-71
2023/11/09 00:58:17;;;;;;;8.03;5.63;;;;;;;7.68;84.63;100161.38;5090159;28;20228;-68
2023/11/09 01:00:45;;;;;;;7.87;5.50;;;;;;;7.65;84.88;100168.22;5099865;28;20227;-72
2023/11/09 01:03:15;;;;;;;9.97;5.73;;;;;;;7.62;84.32;100158.81;5093516;28;20205;-72
2023/11/09 01:05:43;;;;;;;9.30;5.67;;;;;;;7.63;84.92;100168.22;5095656;28;20214;-70
2023/11/09 01:08:12;;;;;;;10.00;5.70;;;;;;;7.61;84.26;100163.94;5093298;28;20209;-69
2023/11/09 01:10:43;;;;;;;7.47;6.20;;;;;;;7.59;84.28;100161.38;5094691;28;20674;-70
2023/11/09 01:13:11;;;;;;;7.53;5.70;;;;;;;7.59;84.76;100166.50;5093208;28;20219;-69
2023/11/09 01:15:39;;;;;;;8.87;5.57;;;;;;;7.54;84.64;100172.47;5085514;28;21526;-68
2023/11/09 01:18:09;;;;;;;8.13;5.53;;;;;;;7.55;84.91;100171.59;5091661;28;20276;-69
2023/11/09 01:20:38;;;;;;;9.37;6.10;;;;;;;7.50;84.43;100169.03;5092627;28;20209;-69
2023/11/09 01:23:08;;;;;;;6.93;5.37;;;;;;;7.53;84.45;100173.31;5098048;28;20235;-70
2023/11/09 01:25:38;;;;;;;10.63;6.90;;;;;;;7.51;84.41;100168.16;5088967;28;20213;-70
2023/11/09 01:28:08;;;;;;;10.03;6.53;;;;;;;7.49;84.80;100169.91;5089520;28;20719;-67
2023/11/09 01:30:37;;;;;;;9.17;6.90;;;;;;;7.45;84.76;100168.19;5087483;28;20225;-70
2023/11/09 01:33:05;;;;;;;9.53;6.63;;;;;;;7.42;85.02;100163.03;5098719;28;20192;-69
2023/11/09 01:35:34;;;;;;;8.90;6.37;;;;;;;7.39;84.60;100173.28;5092261;28;20228;-69
2023/11/09 01:38:01;;;;;;;10.70;6.90;;;;;;;7.38;84.34;100169.00;5095759;28;20200;-70
2023/11/09 01:40:33;;;;;;;7.80;6.50;;;;;;;7.38;84.23;100167.28;5095846;28;20204;-71
2023/11/09 01:43:03;;;;;;;9.63;6.33;;;;;;;7.36;84.67;100163.00;5090575;28;20686;-71
2023/11/09 01:45:33;;;;;;;11.40;6.83;;;;;;;7.36;84.71;100163.84;5095210;28;20739;-71
2023/11/09 01:48:01;;;;;;;9.53;6.80;;;;;;;7.33;84.55;100160.41;5091606;28;20213;-68
2023/11/09 01:50:29;;;;;;;11.23;6.80;;;;;;;7.30;84.07;100163.00;5092433;28;20200;-70
2023/11/09 01:52:57;;;;;;;10.40;7.17;;;;;;;7.28;85.55;100154.44;5090170;28;20248;-69
2023/11/09 01:55:27;;;;;;;10.37;7.07;;;;;;;7.24;85.12;100154.41;5091952;28;20201;-70
2023/11/09 01:57:55;;;;;;;8.40;6.03;;;;;;;7.28;85.27;100164.69;5095666;28;20200;-70
2023/11/09 02:00:24;;;;;;;13.10;6.73;;;;;;;7.23;84.64;100162.13;5097452;28;20197;-69
2023/11/09 02:02:54;;;;;;;9.30;7.20;;;;;;;7.20;84.73;100167.22;5089575;28;20212;-62
2023/11/09 02:05:23;;;;;;;9.43;6.47;;;;;;;7.18;84.29;100162.09;5098335;28;20243;-62
2023/11/09 02:07:53;;;;;;;10.00;6.47;;;;;;;7.16;84.29;100161.22;5096052;28;20731;-61
2023/11/09 02:10:22;;;;;;;8.67;6.27;;;;;;;7.14;84.58;100162.06;5097757;28;20663;-66
2023/11/09 02:12:51;;;;;;;10.23;6.73;;;;;;;7.13;84.14;100160.34;5091637;28;20685;-67
2023/11/09 02:15:19;;;;;;;9.27;5.63;;;;;;;7.13;85.09;100166.34;5092507;28;20200;-68
2023/11/09 02:17:49;;;;;;;10.50;6.43;;;;;;;7.15;84.54;100164.66;5092394;28;20239;-69
2023/11/09 02:20:17;;;;;;;9.57;6.33;;;;;;;7.17;84.74;100167.19;5091094;28;20209;-68
2023/11/09 02:22:47;;;;;;;9.93;6.83;;;;;;;7.18;84.37;100171.47;5087333;28;20196;-65
2023/11/09 02:25:18;;;;;;;8.97;6.10;;;;;;;7.18;83.97;100167.22;5097211;28;20208;-66
2023/11/09 02:27:46;;;;;;;8.23;6.17;;;;;;;7.17;83.84;100168.06;5090440;28;20211;-65
2023/11/09 02:30:14;;;;;;;8.23;5.80;;;;;;;7.17;83.88;100174.88;5089923;28;20629;-68
2023/11/09 02:32:42;;;;;;;12.27;6.57;;;;;;;7.15;83.86;100169.78;5089364;28;20276;-66
2023/11/09 02:35:12;;;;;;;10.07;5.97;;;;;;;7.17;84.25;100175.75;5103039;28;20861;-66
2023/11/09 02:37:40;;;;;;;10.87;5.80;;;;;;;7.17;83.31;100172.34;5088982;28;20207;-65
2023/11/09 02:40:09;;;;;;;11.27;6.83;;;;;;;7.14;83.04;100175.75;5090377;28;20216;-67
2023/11/09 02:42:38;;;;;;;9.97;6.27;;;;;;;7.15;83.41;100179.16;5087351;28;20288;-67
2023/11/09 02:45:08;;;;;;;9.53;6.33;;;;;;;7.14;83.63;100182.56;5095473;28;20220;-66
2023/11/09 02:47:36;;;;;;;9.60;6.30;;;;;;;7.13;83.99;100171.47;5089731;28;20208;-67
2023/11/09 02:50:04;;;;;;;9.23;6.10;;;;;;;7.14;84.15;100173.19;5091770;28;20234;-66
2023/11/09 02:52:32;;;;;;;11.37;7.00;;;;;;;7.15;83.63;100172.34;5091065;28;20204;-66
2023/11/09 02:55:00;;;;;;;9.43;7.10;;;;;;;7.11;83.77;100164.63;5091203;28;20204;-67
2023/11/09 02:57:29;;;;;;;11.50;6.87;;;;;;;7.13;83.77;100171.47;5086510;28;20689;-66
2023/11/09 02:59:59;;;;;;;9.97;6.80;;;;;;;7.12;83.66;100171.47;5080246;28;20196;-74
2023/11/09 03:02:27;;;;;;;9.80;7.10;;;;;;;7.12;82.62;100168.91;5089406;28;20295;-66
2023/11/09 03:04:56;;;;;;;8.63;6.30;;;;;;;7.10;83.00;100184.25;5089729;28;20300;-67
2023/11/09 03:07:26;;;;;;;8.83;6.67;;;;;;;7.09;82.68;100181.69;5100505;28;20205;-66
2023/11/09 03:09:55;;;;;;;8.97;6.27;;;;;;;7.07;83.50;100185.94;5090763;28;20204;-65
2023/11/09 03:12:23;;;;;;;8.13;6.40;;;;;;;7.06;83.35;100189.38;5089219;28;20604;-66
2023/11/09 03:14:51;;;;;;;8.90;6.30;;;;;;;7.02;82.88;100194.47;5088752;28;20203;-65
2023/11/09 03:17:22;;;;;;;9.77;7.00;;;;;;;7.02;83.08;100183.38;5088478;28;20232;-66
2023/11/09 03:19:50;;;;;;;9.63;6.60;;;;;;;6.95;82.95;100194.44;5082594;28;20197;-66
2023/11/09 03:22:18;;;;;;;8.93;6.57;;;;;;;6.90;83.24;100185.88;5092915;28;20212;-66
2023/11/09 03:24:46;;;;;;;10.47;6.43;;;;;;;6.84;83.32;100184.13;5095940;28;20197;-73
2023/11/09 03:27:14;;;;;;;10.03;6.63;;;;;;;6.81;83.37;100185.81;5097241;28;20208;-72
2023/11/09 03:29:42;;;;;;;8.03;5.93;;;;;;;6.82;83.95;100187.53;5090159;28;20243;-71
2023/11/09 03:32:11;;;;;;;11.10;6.60;;;;;;;6.81;84.20;100186.66;5087907;28;20676;-72
2023/11/09 03:34:42;;;;;;;10.07;6.43;;;;;;;6.82;83.15;100190.94;5089732;28;20274;-69
2023/11/09 03:37:10;;;;;;;9.70;6.60;;;;;;;6.78;82.87;100197.75;5086039;28;20258;-69
2023/11/09 03:39:37;;;;;;;11.93;6.13;;;;;;;6.74;83.56;100200.31;5090611;28;20266;-70
2023/11/09 03:42:06;;;;;;;9.77;6.53;;;;;;;6.73;84.02;100201.97;5086329;28;20200;-71
2023/11/09 03:44:35;;;;;;;9.73;6.50;;;;;;;6.72;83.45;100197.72;5091270;28;20628;-70
2023/11/09 03:47:04;;;;;;;9.17;6.50;;;;;;;6.70;83.17;100191.75;5090396;28;20753;-69
2023/11/09 03:49:32;;;;;;;9.47;6.77;;;;;;;6.67;83.56;100186.59;5089719;28;20234;-69
2023/11/09 03:52:01;;;;;;;9.80;6.70;;;;;;;6.67;82.80;100195.97;5085133;28;20219;-71
2023/11/09 03:54:29;;;;;;;8.67;7.00;;;;;;;6.62;83.66;100182.28;5095124;28;20632;-69
2023/11/09 03:56:57;;;;;;;9.70;6.80;;;;;;;6.60;83.42;100186.53;5095560;28;20212;-68
2023/11/09 03:59:25;;;;;;;9.63;7.13;;;;;;;6.59;83.98;100179.69;5087668;28;20628;-69
2023/11/09 04:01:53;;;;;;;11.70;6.97;;;;;;;6.55;83.40;100181.38;5089286;28;20197;-72
2023/11/09 04:04:21;;;;;;;10.60;6.60;;;;;;;6.52;83.54;100179.66;5088466;28;20196;-68
2023/11/09 04:06:49;;;;;;;10.43;7.23;;;;;;;6.47;83.75;100180.47;5089916;28;20307;-70
2023/11/09 04:09:19;;;;;;;12.40;6.60;;;;;;;6.45;83.68;100179.63;5088012;28;20240;-73
2023/11/09 04:11:47;;;;;;;10.53;6.60;;;;;;;6.43;83.73;100182.16;5084581;28;20201;-68
2023/11/09 04:14:15;;;;;;;10.13;7.17;;;;;;;6.40;83.65;100176.16;5083082;28;20204;-70
2023/11/09 04:16:44;;;;;;;10.17;6.70;;;;;;;6.39;84.22;100187.25;5087550;28;20197;-70
2023/11/09 04:19:12;;;;;;;9.23;6.93;;;;;;;6.36;84.49;100179.53;5092542;28;20235;-70
2023/11/09 04:21:40;;;;;;;14.03;7.37;;;;;;;6.35;84.11;100177.81;5092093;28;20275;-69
2023/11/09 04:24:08;;;;;;;10.60;7.10;;;;;;;6.31;83.71;100181.22;5090234;28;20207;-69
2023/11/09 04:26:37;;;;;;;9.23;7.13;;;;;;;6.25;84.29;100172.63;5083728;28;20694;-69
2023/11/09 04:29:09;;;;;;;10.17;7.20;;;;;;;6.23;84.70;100189.69;5094336;28;20282;-70
2023/11/09 04:31:41;;;;;;;10.20;7.13;;;;;;;6.25;85.11;100195.66;5093933;28;20207;-74
2023/11/09 04:34:09;;;;;;;10.30;7.10;;;;;;;6.24;84.46;100186.25;5088458;28;20215;-71
2023/11/09 04:36:40;;;;;;;9.73;6.80;;;;;;;6.23;84.49;100191.38;5089648;28;20652;-69
2023/11/09 04:39:08;;;;;;;10.63;6.37;;;;;;;6.23;84.39;100189.69;5091979;28;20201;-71
2023/11/09 04:41:39;;;;;;;9.60;7.00;;;;;;;6.22;83.98;100194.75;5089476;28;20197;-71
2023/11/09 04:44:08;;;;;;;10.33;6.77;;;;;;;6.17;84.16;100189.63;5091054;28;20204;-69
2023/11/09 04:46:40;;;;;;;8.50;7.00;;;;;;;6.17;83.89;100178.53;5089381;28;20677;-72
2023/11/09 04:49:09;;;;;;;11.87;6.20;;;;;;;6.16;84.20;100187.91;5091139;28;20246;-69
2023/11/09 04:51:37;;;;;;;10.50;7.13;;;;;;;6.12;84.45;100186.16;5088766;28;20208;-70
2023/11/09 04:54:16;;;;;;;9.10;6.67;;;;;;;6.08;84.30;100178.47;5094263;28;20197;-69
2023/11/09 04:58:44;;;;;;;9.80;6.40;;;;;;;6.08;84.45;100175.91;5093255;28;20634;-68
2023/11/09 05:08:08;;;;;;;8.30;6.33;;;;;;;5.99;84.07;100179.22;5091513;28;20192;-71
2023/11/09 05:10:36;;;;;;;8.30;6.77;;;;;;;5.94;84.50;100184.31;5103174;28;20201;-70
2023/11/09 05:13:06;;;;;;;9.97;6.47;;;;;;;5.95;84.45;100182.59;5096974;28;20565;-71
2023/11/09 05:15:34;;;;;;;9.90;6.53;;;;;;;5.94;84.46;100180.88;5090485;28;20212;-71
2023/11/09 05:18:02;;;;;;;9.10;6.80;;;;;;;5.95;84.47;100172.38;5093317;28;20239;-70
2023/11/09 05:20:30;;;;;;;9.80;6.67;;;;;;;5.94;84.51;100173.22;5085784;28;20208;-69
2023/11/09 05:22:59;;;;;;;7.87;6.17;;;;;;;5.95;84.62;100169.81;5088668;28;20713;-70
2023/11/09 05:25:28;;;;;;;9.57;7.07;;;;;;;5.95;83.99;100172.38;5088690;28;20227;-69
2023/11/09 05:27:56;;;;;;;8.23;6.53;;;;;;;5.95;84.42;100177.47;5095422;28;20220;-72
2023/11/09 05:30:26;;;;;;;9.50;6.40;;;;;;;5.95;84.17;100170.66;5092865;28;20613;-70
2023/11/09 05:32:54;;;;;;;8.40;7.27;;;;;;;5.93;83.71;100174.91;5092550;28;20659;-71
2023/11/09 05:35:22;;;;;;;11.57;6.60;;;;;;;5.92;83.79;100179.97;5077236;28;20208;-70
2023/11/09 05:37:50;;;;;;;9.90;6.93;;;;;;;5.90;83.47;100179.13;5094054;28;20213;-70
2023/11/09 05:40:20;;;;;;;10.67;6.40;;;;;;;5.91;83.84;100180.81;5093336;28;20207;-71
2023/11/09 05:42:53;;;;;;;10.33;6.70;;;;;;;5.89;84.05;100183.38;5084884;28;20231;-71
2023/11/09 05:45:22;;;;;;;8.57;7.20;;;;;;;5.90;83.68;100186.78;5095539;28;20269;-71
2023/11/09 05:47:52;;;;;;;9.37;6.73;;;;;;;5.92;84.34;100179.97;5092513;28;20223;-73
2023/11/09 05:50:20;;;;;;;12.60;7.87;;;;;;;5.90;83.86;100184.22;5092732;28;20201;-70
2023/11/09 05:52:49;;;;;;;11.33;6.90;;;;;;;5.91;83.77;100191.91;5091497;28;20674;-73
2023/11/09 05:55:17;;;;;;;9.17;6.30;;;;;;;5.91;84.08;100188.50;5092756;28;20632;-71
2023/11/09 05:57:45;;;;;;;9.30;6.63;;;;;;;5.94;83.41;100183.44;5091400;28;20284;-71
2023/11/09 06:00:15;;;;;;;7.73;6.30;;;;;;;5.97;83.40;100184.34;5097832;28;20238;-70
2023/11/09 06:02:43;;;;;;;7.37;6.07;;;;;;;5.97;83.55;100191.16;5086283;28;20209;-64
2023/11/09 06:05:12;;;;;;;13.20;7.23;;;;;;;5.98;83.34;100187.75;5089785;28;20201;-67
2023/11/09 06:07:41;;;;;;;9.63;6.80;;;;;;;6.00;83.32;100191.16;5088398;28;20317;-65
2023/11/09 06:10:09;;;;;;;9.17;6.70;;;;;;;6.02;83.09;100189.47;5091618;28;20303;-65
2023/11/09 06:12:37;;;;;;;8.00;6.53;;;;;;;6.05;82.37;100194.63;5091774;28;20719;-62
2023/11/09 06:15:07;;;;;;;10.97;6.57;;;;;;;6.05;82.44;100185.25;5095533;28;20197;-63
2023/11/09 06:17:36;;;;;;;11.60;5.30;;;;;;;6.00;82.55;100180.91;5087463;28;20275;-66
2023/11/09 06:20:10;;;;;;;11.17;6.80;;;;;;;6.03;82.20;100196.31;5089276;28;20205;-64
2023/11/09 06:22:40;;;;;;;8.47;6.80;;;;;;;6.02;82.49;100187.78;5093851;28;20200;-64
2023/11/09 06:25:09;;;;;;;11.43;7.30;;;;;;;6.03;82.56;100183.50;5086417;28;20210;-65
2023/11/09 06:27:38;;;;;;;10.73;7.03;;;;;;;6.04;82.34;100190.38;5092779;28;20287;-64
2023/11/09 06:30:08;;;;;;;11.33;6.47;;;;;;;6.04;82.32;100187.81;5100931;28;20287;-64
2023/11/09 06:32:36;;;;;;;9.97;6.93;;;;;;;6.02;82.12;100181.81;5065054;28;20253;-74
2023/11/09 06:35:13;;;;;;;11.17;7.00;;;;;;;6.04;82.41;100191.22;5100665;28;20336;-72
2023/11/09 06:37:45;;;;;;;8.83;5.67;;;;;;;6.03;81.82;100180.97;5087675;28;20273;-71
2023/11/09 06:40:16;;;;;;;10.03;6.50;;;;;;;6.07;82.03;100195.47;5098344;28;20287;-74
2023/11/09 06:42:49;;;;;;;9.23;6.37;;;;;;;6.09;81.86;100188.69;5097356;28;20228;-69
2023/11/09 06:45:18;;;;;;;8.83;6.17;;;;;;;6.10;81.62;100192.97;5086863;28;20673;-71
2023/11/09 06:47:46;;;;;;;8.03;5.93;;;;;;;6.11;81.43;100192.09;5093423;28;20266;-71
2023/11/09 06:50:19;;;;;;;9.53;6.50;;;;;;;6.12;82.33;100191.28;5093903;28;20208;-66
2023/11/09 06:52:50;;;;;;;7.70;6.20;;;;;;;6.15;81.50;100186.19;5090575;28;20200;-65
2023/11/09 06:55:20;;;;;;;12.53;6.63;;;;;;;6.20;80.93;100181.13;5093280;28;20245;-65
2023/11/09 06:57:48;;;;;;;10.93;6.10;;;;;;;6.20;81.21;100174.28;5088518;28;20197;-64
2023/11/09 07:00:17;;;;;;;8.17;6.17;;;;;;;6.27;80.85;100188.00;5091837;28;20671;-67
2023/11/09 07:02:47;;;;;;;8.80;5.60;;;;;;;6.31;80.33;100188.88;5087269;28;20246;-67
2023/11/09 07:05:15;;;;;;;9.33;5.83;;;;;;;6.33;80.31;100190.59;5090141;28;20665;-65
2023/11/09 07:07:44;;;;;;;10.27;6.70;;;;;;;6.36;80.00;100188.06;5089659;28;20317;-65
2023/11/09 07:10:15;;;;;;;9.50;6.07;;;;;;;6.38;79.99;100188.94;5091491;28;20208;-68
2023/11/09 07:12:44;;;;;;;7.83;6.00;;;;;;;6.43;79.56;100183.84;5090136;28;20288;-62
2023/11/09 07:15:13;;;;;;;7.90;6.07;;;;;;;6.49;80.21;100187.31;5089691;28;20205;-65
2023/11/09 07:17:41;;;;;;;10.90;6.13;;;;;;;6.56;79.09;100190.78;5086069;28;20228;-64
2023/11/09 07:20:12;;;;;;;9.23;6.13;;;;;;;6.62;78.66;100195.06;5082390;28;20627;-65
2023/11/09 07:22:40;;;;;;;11.87;5.77;;;;;;;6.67;78.77;100190.84;5083534;28;20207;-64
2023/11/09 07:25:10;;;;;;;18.40;6.30;;;;;;;6.76;79.09;100189.19;5082610;28;20193;-66
2023/11/09 07:27:43;;;;;;;10.37;5.87;;;;;;;6.86;78.59;100186.69;5091241;28;20261;-64
2023/11/09 07:30:12;;;;;;;7.37;5.83;;;;;;;6.94;77.71;100185.88;5090686;28;20262;-67
2023/11/09 07:32:40;;;;;;;7.93;5.90;;;;;;;6.99;77.73;100183.34;5086929;28;20196;-65
2023/11/09 07:35:09;;;;;;;9.13;6.47;;;;;;;7.08;77.40;100185.13;5094249;28;20205;-72
2023/11/09 07:37:37;;;;;;;9.93;6.33;;;;;;;7.14;76.99;100183.44;5087411;28;20643;-63
2023/11/09 07:40:09;;;;;;;9.60;5.77;;;;;;;7.19;76.46;100175.78;5093098;28;20208;-64
2023/11/09 07:42:38;;;;;;;7.73;5.43;;;;;;;7.23;76.51;100165.53;5079164;28;20200;-63
2023/11/09 07:45:10;;;;;;;8.57;6.13;;;;;;;7.31;75.94;100169.84;5091116;28;20313;-64
2023/11/09 07:47:38;;;;;;;8.57;6.27;;;;;;;7.35;75.34;100176.69;5091018;28;20219;-62
2023/11/09 07:50:09;;;;;;;9.10;6.17;;;;;;;7.38;75.14;100182.66;5091562;28;20246;-64
2023/11/09 07:52:38;;;;;;;9.13;6.03;;;;;;;7.37;74.10;100180.13;5091263;28;20279;-64
2023/11/09 07:55:07;;;;;;;7.77;5.73;;;;;;;7.42;75.27;100186.09;5087078;28;20284;-62
2023/11/09 07:57:35;;;;;;;6.83;5.20;;;;;;;7.49;75.19;100185.28;5083950;28;20200;-65
2023/11/09 08:00:10;;;;;;;6.50;5.70;;;;;;;7.53;74.74;100176.75;5094183;28;20632;-64
2023/11/09 08:02:41;;;;;;;10.30;6.77;;;;;;;7.62;73.70;100176.78;5088518;28;20562;-67
2023/11/09 08:05:14;;;;;;;11.20;5.80;;;;;;;7.63;74.29;100173.34;5080238;28;20200;-67
2023/11/09 08:07:43;;;;;;;12.00;5.40;;;;;;;7.64;72.94;100179.34;5080031;28;20716;-64
2023/11/09 08:10:12;;;;;;;7.87;5.50;;;;;;;7.65;72.73;100169.06;5091571;28;20597;-64
2023/11/09 08:12:42;;;;;;;7.17;5.17;;;;;;;7.67;74.19;100169.09;5091627;28;20205;-65
2023/11/09 08:15:11;;;;;;;10.27;5.80;;;;;;;7.70;73.76;100171.66;5090985;28;20201;-65
2023/11/09 08:17:41;;;;;;;9.83;5.50;;;;;;;7.74;73.31;100160.56;5094570;28;20240;-67
2023/11/09 08:20:14;;;;;;;10.93;5.90;;;;;;;7.80;73.17;100162.25;5089546;28;20291;-65
2023/11/09 08:22:45;;;;;;;6.20;5.33;;;;;;;7.84;72.20;100163.97;5080180;28;20200;-66
2023/11/09 08:25:15;;;;;;;10.50;5.97;;;;;;;7.85;72.48;100163.13;5091978;28;20204;-66
2023/11/09 08:27:44;;;;;;;9.37;5.93;;;;;;;7.88;72.55;100171.69;5091829;28;20215;-66
2023/11/09 08:30:15;;;;;;;10.53;6.23;;;;;;;7.91;72.88;100168.25;5089100;28;20204;-65
2023/11/09 08:32:47;;;;;;;13.93;6.60;;;;;;;7.98;72.76;100175.09;5095859;28;20231;-63
2023/11/09 08:35:18;;;;;;;12.27;5.40;;;;;;;8.00;72.73;100168.28;5093307;28;20652;-64
2023/11/09 08:37:46;;;;;;;10.97;6.20;;;;;;;8.08;72.21;100173.41;5092111;28;20204;-66
2023/11/09 08:40:17;;;;;;;10.83;6.10;;;;;;;8.09;71.88;100168.28;5087723;28;20197;-64
2023/11/09 08:42:48;;;;;;;9.30;5.60;;;;;;;8.19;72.47;100172.56;5095503;28;20283;-63
2023/11/09 08:45:17;;;;;;;6.83;5.20;;;;;;;8.26;72.65;100170.00;5095220;28;20204;-65
2023/11/09 08:47:48;;;;;;;8.23;5.17;;;;;;;8.34;71.31;100165.72;5095156;28;20216;-64
2023/11/09 08:50:17;;;;;;;7.83;5.27;;;;;;;8.45;71.87;100171.72;5093757;28;21155;-62
2023/11/09 08:52:46;;;;;;;5.07;4.37;;;;;;;8.58;71.25;100165.75;5093488;28;20204;-66
2023/11/09 08:55:16;;;;;;;7.47;4.80;;;;;;;8.72;71.91;100160.53;5083530;28;20762;-66
2023/11/09 08:57:44;;;;;;;7.20;5.27;;;;;;;8.86;71.04;100168.22;5088233;28;20629;-64
2023/11/09 09:00:13;;;;;;;10.60;5.47;;;;;;;8.99;68.69;100151.94;5091756;28;20738;-65
2023/11/09 09:02:48;;;;;;;7.83;5.20;;;;;;;9.06;68.15;100151.06;5092944;28;20208;-65
2023/11/09 09:05:19;;;;;;;10.73;5.37;;;;;;;9.13;68.87;100145.03;5087073;28;20200;-66
2023/11/09 09:07:49;;;;;;;13.70;5.40;;;;;;;9.16;68.70;100136.41;5092959;28;20207;-67
2023/11/09 09:10:21;;;;;;;8.77;4.80;;;;;;;9.19;67.62;100142.41;5091242;28;20224;-65
2023/11/09 09:12:51;;;;;;;6.13;4.67;;;;;;;9.23;67.52;100145.81;5091862;28;20361;-67
2023/11/09 09:15:20;;;;;;;10.27;5.30;;;;;;;9.23;66.85;100139.81;5093190;28;20236;-66
2023/11/09 09:17:50;;;;;;;7.80;4.87;;;;;;;9.24;68.44;100141.53;5092237;28;20240;-65
2023/11/09 09:20:20;;;;;;;8.23;5.03;;;;;;;9.22;67.37;100144.13;5089805;28;20205;-64
2023/11/09 09:22:52;;;;;;;8.97;5.03;;;;;;;9.21;67.13;100139.00;5091899;28;20244;-68
2023/11/09 09:25:22;;;;;;;8.27;5.17;;;;;;;9.13;65.86;100137.31;5085709;28;20200;-68
2023/11/09 09:27:52;;;;;;;10.20;5.17;;;;;;;9.06;67.06;100134.78;5091554;28;20207;-64
2023/11/09 09:30:22;;;;;;;9.47;5.17;;;;;;;9.02;67.52;100139.06;5091865;28;20274;-64
2023/11/09 09:32:52;;;;;;;9.00;5.50;;;;;;;8.98;69.20;100127.06;5087173;28;20197;-65
2023/11/09 09:35:24;;;;;;;11.33;6.27;;;;;;;8.98;67.92;100121.94;5086196;28;20224;-65
2023/11/09 09:37:59;;;;;;;6.67;4.83;;;;;;;8.98;67.62;100121.06;5093001;28;20204;-64
2023/11/09 09:40:32;;;;;;;5.80;4.50;;;;;;;8.97;67.05;100120.22;5088821;28;20674;-66
2023/11/09 09:43:16;;;;;;;10.03;4.83;;;;;;;8.95;67.23;100124.53;5092989;28;20203;-65
2023/11/09 09:45:46;;;;;;;8.30;5.30;;;;;;;8.94;67.67;100120.22;5087059;28;20200;-65
2023/11/09 09:48:16;;;;;;;11.33;4.73;;;;;;;8.94;66.96;100115.09;5082648;28;20206;-65
2023/11/09 09:50:48;;;;;;;7.57;4.50;;;;;;;8.92;67.47;100111.69;5085827;28;20201;-69
2023/11/09 09:53:24;;;;;;;8.97;6.03;;;;;;;8.95;68.74;100112.53;5087993;28;20867;-65
2023/11/09 09:55:54;;;;;;;6.93;4.63;;;;;;;8.97;67.96;100104.81;5087107;28;20218;-69
2023/11/09 09:58:22;;;;;;;8.70;5.33;;;;;;;8.99;67.18;100099.69;5081779;28;20204;-62
2023/11/09 10:00:54;;;;;;;8.53;5.03;;;;;;;9.00;67.62;100098.81;5087848;28;20281;-66
2023/11/09 10:03:23;;;;;;;8.53;4.57;;;;;;;9.01;67.18;100103.94;5085608;28;20573;-67
2023/11/09 10:05:53;;;;;;;12.60;5.40;;;;;;;9.04;68.57;100093.66;5089736;28;20212;-67
2023/11/09 10:08:23;;;;;;;7.33;4.63;;;;;;;9.07;67.39;100092.78;5087437;28;20197;-68
2023/11/09 10:10:54;;;;;;;7.67;4.47;;;;;;;9.07;66.96;100083.34;5092081;28;20208;-69
2023/11/09 10:13:24;;;;;;;7.93;5.50;;;;;;;9.08;66.79;100072.19;5096364;28;20200;-65
2023/11/09 10:15:56;;;;;;;7.83;4.90;;;;;;;9.10;68.13;100070.50;5085824;28;20262;-66
2023/11/09 10:18:28;;;;;;;7.00;4.73;;;;;;;9.11;67.09;100064.47;5084020;28;20267;-67
2023/11/09 10:20:59;;;;;;;9.50;5.50;;;;;;;9.17;67.44;100076.47;5094323;28;20663;-68
2023/11/09 10:23:27;;;;;;;7.70;4.63;;;;;;;9.18;67.53;100067.88;5092781;28;20205;-71
2023/11/09 10:25:56;;;;;;;8.23;4.93;;;;;;;9.25;67.60;100066.13;5088581;28;20718;-68
2023/11/09 10:28:28;;;;;;;7.33;4.63;;;;;;;9.29;67.02;100058.38;5091392;28;20209;-70
2023/11/09 10:31:00;;;;;;;6.90;4.47;;;;;;;9.34;66.25;100063.50;5091715;28;20258;-69
2023/11/09 10:33:32;;;;;;;8.70;4.17;;;;;;;9.36;67.31;100056.63;5089706;28;20298;-71
2023/11/09 10:36:04;;;;;;;6.10;4.40;;;;;;;9.46;66.91;100053.09;5096349;28;20238;-67
2023/11/09 10:38:36;;;;;;;7.23;4.57;;;;;;;9.49;66.28;100047.94;5071710;28;20212;-64
2023/11/09 10:41:05;;;;;;;7.63;4.50;;;;;;;9.49;65.40;100037.66;5089478;28;20204;-68
2023/11/09 10:43:59;;;;;;;8.73;4.93;;;;;;;9.54;64.67;100038.50;5089123;28;20192;-62
2023/11/09 10:46:37;;;;;;;7.30;5.00;;;;;;;9.63;66.52;100046.13;5083236;28;20289;-67
2023/11/09 10:49:06;;;;;;;10.57;4.70;;;;;;;9.68;65.55;100046.09;5087056;28;20213;-69
2023/11/09 10:51:41;;;;;;;8.00;4.50;;;;;;;9.75;64.95;100034.03;5089458;28;20204;-67
2023/11/09 10:54:10;;;;;;;10.47;4.60;;;;;;;9.73;64.96;100028.91;5089283;28;20320;-65
2023/11/09 10:56:39;;;;;;;8.03;4.07;;;;;;;9.78;63.71;100028.88;5093720;28;20197;-69
2023/11/09 10:59:08;;;;;;;6.53;4.23;;;;;;;9.77;63.43;100028.03;5090541;28;20200;-65
2023/11/09 11:01:40;;;;;;;7.13;4.53;;;;;;;9.82;65.23;100027.97;5089870;28;20520;-69
2023/11/09 11:04:12;;;;;;;8.67;4.83;;;;;;;9.88;63.58;100035.66;5082615;28;20570;-66
2023/11/09 11:06:51;;;;;;;6.30;4.23;;;;;;;9.90;64.91;100028.75;5090935;28;20566;-65
2023/11/09 11:09:26;;;;;;;8.93;4.43;;;;;;;9.96;63.41;100027.84;5091258;28;20216;-65
2023/11/09 11:11:58;;;;;;;8.77;4.33;;;;;;;9.98;62.27;100021.84;5086129;28;20207;-65
2023/11/09 11:14:29;;;;;;;6.77;4.50;;;;;;;10.01;62.97;100031.22;5085617;28;20598;-64
2023/11/09 11:17:24;;;;;;;8.73;4.37;;;;;;;10.01;63.15;100026.94;5081036;28;20228;-62
2023/11/09 11:20:32;;;;;;;6.47;4.07;;;;;;;10.09;62.68;100024.31;5082010;28;20620;-67
2023/11/09 11:23:18;;;;;;;6.83;4.20;;;;;;;10.12;62.53;100021.69;4993927;28;20242;-63
2023/11/09 11:25:53;;;;;;;7.93;3.97;;;;;;;10.15;62.50;100019.94;5080835;28;20200;-66
2023/11/09 11:28:21;;;;;;;7.83;4.07;;;;;;;10.20;61.80;100014.75;5089722;28;20200;-68
2023/11/09 11:30:51;;;;;;;10.50;4.33;;;;;;;10.20;61.60;100009.59;5084272;28;20239;-68
2023/11/09 11:33:20;;;;;;;6.13;3.87;;;;;;;10.30;61.77;100012.94;5081153;28;20204;-65
2023/11/09 11:35:53;;;;;;;5.93;3.80;;;;;;;10.36;61.55;100007.72;5090600;28;20240;-71
2023/11/09 11:38:26;;;;;;;5.60;3.73;;;;;;;10.42;62.23;100006.78;5084421;28;20205;-71
2023/11/09 11:41:03;;;;;;;10.67;4.20;;;;;;;10.48;61.45;100017.88;5088195;28;20216;-69
2023/11/09 11:43:37;;;;;;;8.37;4.30;;;;;;;10.59;61.96;100005.72;5088519;28;20196;-71
2023/11/09 11:46:08;;;;;;;7.53;3.90;;;;;;;10.77;60.52;99998.66;5086668;28;20207;-74
2023/11/09 11:48:37;;;;;;;7.27;3.80;;;;;;;11.03;60.62;100001.72;5086898;28;20572;-75
2023/11/09 11:51:09;;;;;;;7.10;4.50;;;;;;;11.35;59.65;99988.34;5088953;28;20324;-74